createdAt,value
2023-01-12T00:01:06.935Z,100891.59
2023-01-12T00:03:34.188Z,100891.06
2023-01-12T00:06:07.205Z,100896.36
2023-01-12T00:08:37.702Z,100890.46
2023-01-12T00:11:04.851Z,100890.98
2023-01-12T00:13:32.904Z,100896.06
2023-01-12T00:16:20.385Z,100901.65
2023-01-12T00:18:47.985Z,100892.42
2023-01-12T00:21:15.409Z,100901.01
2023-01-12T00:23:44.775Z,100906.98
2023-01-12T00:26:15.963Z,100909.56
2023-01-12T00:28:42.908Z,100909.02
2023-01-12T00:31:10.958Z,100913.39
2023-01-12T00:33:38.955Z,100909.70
2023-01-12T00:36:15.302Z,100907.27
2023-01-12T00:38:42.855Z,100909.37
2023-01-12T00:41:33.395Z,100910.12
2023-01-12T00:44:18.976Z,100916.27
2023-01-12T00:46:46.595Z,100917.88
2023-01-12T00:49:28.411Z,100925.54
2023-01-12T00:51:56.805Z,100920.49
2023-01-12T00:54:27.441Z,100921.39
2023-01-12T00:56:55.513Z,100917.55
2023-01-12T00:59:25.895Z,100921.20
2023-01-12T01:01:55.347Z,100928.35
2023-01-12T01:04:22.799Z,100928.73
2023-01-12T01:06:54.048Z,100928.91
2023-01-12T01:09:22.328Z,100923.89
2023-01-12T01:11:50.977Z,100915.88
2023-01-12T01:14:20.507Z,100916.41
2023-01-12T01:16:48.369Z,100916.23
2023-01-12T01:19:16.157Z,100912.88
2023-01-12T01:21:44.368Z,100920.17
2023-01-12T01:24:12.369Z,100914.20
2023-01-12T01:26:41.027Z,100920.64
2023-01-12T01:29:08.944Z,100923.08
2023-01-12T01:31:38.439Z,100925.69
2023-01-12T01:34:06.738Z,100926.08
2023-01-12T01:36:37.046Z,100928.55
2023-01-12T01:39:05.276Z,100934.67
2023-01-12T01:41:34.190Z,100933.14
2023-01-12T01:44:29.303Z,100933.51
2023-01-12T01:46:56.861Z,100938.11
2023-01-12T01:49:39.134Z,100937.27
2023-01-12T01:52:20.818Z,100933.63
2023-01-12T04:04:45.900Z,100868.33
2023-01-12T04:07:15.833Z,100859.96
2023-01-12T04:09:44.084Z,100861.73
2023-01-12T04:12:11.896Z,100856.86
2023-01-12T04:14:47.642Z,100858.64
2023-01-12T04:17:15.663Z,100858.50
2023-01-12T04:19:43.500Z,100857.66
2023-01-12T04:22:32.521Z,100854.19
2023-01-12T04:25:01.881Z,100857.02
2023-01-12T04:27:31.866Z,100857.74
2023-01-12T04:29:59.294Z,100853.20
2023-01-12T04:32:26.885Z,100860.56
2023-01-12T04:34:55.529Z,100859.71
2023-01-12T04:37:23.610Z,100855.36
2023-01-12T04:39:53.554Z,100850.30
2023-01-12T04:42:39.600Z,100847.52
2023-01-12T04:45:10.961Z,100849.98
2023-01-12T04:47:38.827Z,100843.20
2023-01-12T04:50:07.987Z,100840.79
2023-01-12T04:52:39.368Z,100835.90
2023-01-12T04:55:07.084Z,100832.92
2023-01-12T04:57:37.331Z,100825.05
2023-01-12T05:00:08.054Z,100828.58
2023-01-12T05:02:35.885Z,100830.33
2023-01-12T05:05:05.008Z,100825.96
2023-01-12T05:07:33.847Z,100817.91
2023-01-12T05:10:23.060Z,100824.41
2023-01-12T05:12:51.222Z,100825.98
2023-01-12T05:15:24.329Z,100830.52
2023-01-12T05:17:54.343Z,100834.73
2023-01-12T05:20:22.789Z,100828.27
2023-01-12T05:22:52.444Z,100826.54
2023-01-12T05:25:30.676Z,100830.04
2023-01-12T05:28:04.011Z,100827.08
2023-01-12T05:30:37.735Z,100821.13
2023-01-12T05:33:07.222Z,100821.48
2023-01-12T05:35:39.714Z,100821.48
2023-01-12T05:38:09.632Z,100825.89
2023-01-12T05:40:38.416Z,100820.80
2023-01-12T05:43:29.530Z,100816.44
2023-01-12T05:45:59.508Z,100815.58
2023-01-12T05:48:32.493Z,100816.64
2023-01-12T05:51:03.096Z,100815.77
2023-01-12T05:53:33.607Z,100816.65
2023-01-12T05:56:26.095Z,100814.00
2023-01-12T05:58:58.452Z,100823.13
2023-01-12T06:01:31.767Z,100823.84
2023-01-12T06:04:02.249Z,100823.14
2023-01-12T06:06:31.768Z,100826.99
2023-01-12T06:09:05.895Z,100824.20
2023-01-12T06:11:54.557Z,100828.58
2023-01-12T06:14:27.752Z,100827.92
2023-01-12T06:16:54.977Z,100822.65
2023-01-12T06:19:23.795Z,100826.86
2023-01-12T06:21:52.675Z,100829.66
2023-01-12T06:24:22.690Z,100827.22
2023-01-12T06:26:51.882Z,100820.40
2023-01-12T06:29:19.773Z,100810.42
2023-01-12T06:31:49.626Z,100810.59
2023-01-12T06:34:17.929Z,100813.41
2023-01-12T06:36:45.639Z,100815.70
2023-01-12T06:39:14.931Z,100815.70
2023-01-12T06:42:01.499Z,100809.56
2023-01-12T06:44:29.549Z,100814.65
2023-01-12T06:46:58.230Z,100809.05
2023-01-12T06:49:27.365Z,100811.87
2023-01-12T06:51:56.806Z,100809.77
2023-01-12T06:54:24.398Z,100816.25
2023-01-12T06:56:51.720Z,100817.13
2023-01-12T06:59:19.075Z,100809.26
2023-01-12T07:01:47.083Z,100809.60
2023-01-12T07:04:15.251Z,100815.39
2023-01-12T07:06:47.741Z,100820.13
2023-01-12T07:09:14.756Z,100818.89
2023-01-12T07:11:46.114Z,100824.51
2023-01-12T07:14:17.397Z,100830.66
2023-01-12T07:16:49.203Z,100828.37
2023-01-12T07:19:20.219Z,100824.85
2023-01-12T07:21:50.354Z,100833.10
2023-01-12T07:24:18.004Z,100823.80
2023-01-12T07:26:48.588Z,100828.53
2023-01-12T07:29:36.708Z,100821.52
2023-01-12T07:32:06.834Z,100821.54
2023-01-12T07:34:39.812Z,100832.23
2023-01-12T07:37:07.532Z,100813.11
2023-01-12T07:39:39.417Z,100813.81
2023-01-12T07:42:24.519Z,100816.44
2023-01-12T07:44:53.470Z,100813.80
2023-01-12T07:47:20.541Z,100808.70
2023-01-12T07:49:49.198Z,100810.47
2023-01-12T07:52:16.479Z,100805.38
2023-01-12T07:54:44.693Z,100809.92
2023-01-12T07:57:13.209Z,100815.38
2023-01-12T07:59:41.674Z,100818.90
2023-01-12T08:02:18.970Z,100814.15
2023-01-12T08:04:46.800Z,100814.68
2023-01-12T08:07:20.508Z,100813.29
2023-01-12T08:09:48.512Z,100819.61
2023-01-12T08:12:21.681Z,100806.62
2023-01-12T08:14:54.966Z,100813.83
2023-01-12T08:17:28.707Z,100811.53
2023-01-12T08:20:11.714Z,100817.85
2023-01-12T08:23:12.759Z,100814.88
2023-01-12T08:26:35.363Z,100819.08
2023-01-12T08:29:51.534Z,100818.91
2023-01-12T08:32:23.384Z,100814.52
2023-01-12T08:34:55.783Z,100820.30
2023-01-12T08:37:25.123Z,100810.83
2023-01-12T08:39:53.289Z,100812.93
2023-01-12T08:42:28.743Z,100810.13
2023-01-12T08:45:20.542Z,100797.14
2023-01-12T08:47:47.988Z,100800.66
2023-01-12T08:50:16.765Z,100787.66
2023-01-12T08:52:46.886Z,100787.48
2023-01-12T08:55:17.356Z,100786.25
2023-01-12T08:57:46.483Z,100800.28
2023-01-12T09:00:21.127Z,100790.45
2023-01-12T09:02:50.183Z,100791.15
2023-01-12T09:05:19.373Z,100775.36
2023-01-12T09:07:48.739Z,100776.07
2023-01-12T09:10:20.272Z,100779.94
2023-01-12T09:13:02.160Z,100771.86
2023-01-12T09:15:35.464Z,100771.84
2023-01-12T09:18:05.040Z,100769.38
2023-01-12T09:20:39.546Z,100775.88
2023-01-12T09:23:10.381Z,100762.35
2023-01-12T09:25:41.066Z,100762.89
2023-01-12T09:28:11.570Z,100758.13
2023-01-12T09:30:43.205Z,100766.38
2023-01-12T09:33:11.841Z,100758.98
2023-01-12T09:35:46.450Z,100762.30
2023-01-12T09:38:14.161Z,100777.05
2023-01-12T09:40:44.383Z,100775.11
2023-01-12T09:43:31.849Z,100771.44
2023-01-12T09:46:17.454Z,100769.49
2023-01-12T09:48:47.964Z,100777.92
2023-01-12T09:51:50.104Z,100771.59
2023-01-12T09:54:20.109Z,100757.55
2023-01-12T09:57:28.325Z,100763.15
2023-01-12T10:00:06.453Z,100755.77
2023-01-12T10:02:47.280Z,100756.28
2023-01-12T10:05:40.176Z,100761.90
2023-01-12T10:08:15.998Z,100765.05
2023-01-12T10:10:48.582Z,100759.09
2023-01-12T10:13:18.669Z,100763.13
2023-01-12T10:15:55.276Z,100767.18
2023-01-12T10:18:31.688Z,100766.84
2023-01-12T10:20:58.997Z,100766.86
2023-01-12T10:23:29.219Z,100767.55
2023-01-12T10:26:27.148Z,100765.10
2023-01-12T10:28:56.332Z,100757.73
2023-01-12T10:31:25.112Z,100750.54
2023-01-12T14:13:36.741Z,100688.94
2023-01-12T14:16:36.611Z,100695.98
2023-01-12T14:19:34.738Z,100691.41
2023-01-12T14:22:05.679Z,100691.61
2023-01-12T14:25:22.523Z,100689.15
2023-01-12T14:28:23.935Z,100688.30
2023-01-12T14:31:05.637Z,100677.40
2023-01-12T14:33:41.934Z,100680.37
2023-01-12T14:36:20.510Z,100676.85
2023-01-12T14:38:52.895Z,100677.04
2023-01-12T14:41:49.030Z,100683.89
2023-01-12T14:44:43.684Z,100683.02
2023-01-12T14:47:27.747Z,100683.55
2023-01-12T14:50:02.989Z,100677.59
2023-01-12T14:52:37.297Z,100680.04
2023-01-12T14:55:28.553Z,100679.33
2023-01-12T14:57:59.263Z,100682.32
2023-01-12T15:00:29.972Z,100682.68
2023-01-12T15:02:59.821Z,100689.34
2023-01-12T15:05:29.530Z,100689.18
2023-01-12T15:08:09.740Z,100691.64
2023-01-12T15:10:42.689Z,100685.84
2023-01-12T15:13:35.921Z,100695.52
2023-01-12T15:16:28.269Z,100691.13
2023-01-12T15:19:19.405Z,100698.16
2023-01-12T15:22:11.578Z,100697.64
2023-01-12T15:25:11.025Z,100697.27
2023-01-12T15:27:46.653Z,100706.59
2023-01-12T15:33:10.663Z,100706.95
2023-01-12T15:35:51.154Z,100710.31
2023-01-12T15:38:30.131Z,100705.05
2023-01-12T15:41:02.448Z,100706.80
2023-01-12T15:43:34.999Z,100714.19
2023-01-12T15:46:04.763Z,100714.00
2023-01-12T15:48:35.309Z,100710.33
2023-01-12T15:51:04.325Z,100710.34
2023-01-12T15:53:34.147Z,100713.67
2023-01-12T15:56:04.155Z,100712.79
2023-01-12T15:58:32.946Z,100704.56
2023-01-12T16:01:12.368Z,100700.69
2023-01-12T16:04:24.900Z,100693.48
2023-01-12T16:06:34.632Z,100688.21
2023-01-12T16:09:02.231Z,100691.19
2023-01-12T16:11:33.883Z,100696.30
2023-01-12T16:14:18.431Z,100692.27
2023-01-12T16:16:50.769Z,100687.70
2023-01-12T16:19:20.745Z,100692.09
2023-01-12T16:21:54.232Z,100688.95
2023-01-12T16:24:26.112Z,100683.16
2023-01-12T16:26:53.408Z,100687.55
2023-01-12T16:29:26.097Z,100690.52
2023-01-12T16:32:00.408Z,100684.38
2023-01-12T16:34:38.718Z,100684.23
2023-01-12T16:37:06.069Z,100677.03
2023-01-12T16:39:35.912Z,100675.80
2023-01-12T16:42:04.578Z,100676.68
2023-01-12T16:44:32.575Z,100679.14
2023-01-12T16:47:01.122Z,100679.84
2023-01-12T16:49:29.880Z,100672.84
2023-01-12T16:52:04.913Z,100676.70
2023-01-12T16:54:45.016Z,100671.61
2023-01-12T16:57:16.932Z,100658.27
2023-01-12T16:59:50.484Z,100652.30
2023-01-12T17:02:21.834Z,100656.17
2023-01-12T17:04:51.588Z,100662.84
2023-01-12T17:07:22.522Z,100667.40
2023-01-12T17:09:51.348Z,100667.40
2023-01-12T17:12:28.752Z,100662.13
2023-01-12T17:15:11.871Z,100653.54
2023-01-12T17:17:40.243Z,100650.20
2023-01-12T17:20:21.018Z,100649.67
2023-01-12T17:22:49.632Z,100643.70
2023-01-12T17:25:21.487Z,100637.19
2023-01-12T17:27:50.141Z,100637.88
2023-01-12T17:30:22.967Z,100638.58
2023-01-12T17:32:53.237Z,100640.52
2023-01-12T17:35:20.903Z,100638.06
2023-01-12T17:37:48.218Z,100641.21
2023-01-12T17:40:21.885Z,100643.49
2023-01-12T17:43:07.863Z,100651.76
2023-01-12T17:45:42.942Z,100650.88
2023-01-12T17:48:11.516Z,100649.66
2023-01-12T17:50:40.526Z,100652.48
2023-01-12T22:13:31.455Z,100636.77
2023-01-12T22:16:06.802Z,100627.27
2023-01-12T22:18:35.100Z,100615.34
2023-01-12T22:21:03.986Z,100610.44
2023-01-12T22:23:32.826Z,100610.79
2023-01-12T22:26:11.591Z,100616.23
2023-01-12T22:28:41.639Z,100610.44
2023-01-12T22:31:14.509Z,100608.15
2023-01-12T22:33:49.740Z,100604.65
2023-01-12T22:36:20.320Z,100605.36
2023-01-12T22:38:50.528Z,100606.39
2023-01-12T22:41:21.317Z,100605.16
2023-01-12T22:43:48.931Z,100615.50
2023-01-12T22:46:48.698Z,100618.30
2023-01-12T22:52:41.760Z,100614.09
2023-01-12T22:58:08.773Z,100608.63
2023-01-12T23:00:39.420Z,100604.61
2023-01-12T23:03:09.990Z,100601.09
2023-01-12T23:05:57.141Z,100603.39
2023-01-12T23:08:26.442Z,100607.05
2023-01-12T23:11:08.158Z,100610.55
2023-01-12T23:13:40.401Z,100609.11
2023-01-12T23:16:08.845Z,100608.92
2023-01-12T23:18:39.524Z,100604.02
2023-01-12T23:21:15.936Z,100605.25
2023-01-12T23:23:46.180Z,100603.66
2023-01-12T23:26:20.247Z,100599.61
2023-01-12T23:28:55.426Z,100599.25
2023-01-12T23:31:28.083Z,100598.89
2023-01-12T23:33:56.958Z,100599.06
2023-01-12T23:36:29.677Z,100591.52
2023-01-12T23:39:03.785Z,100590.13
2023-01-12T23:41:33.382Z,100586.64
2023-01-12T23:44:05.204Z,100590.86
2023-01-12T23:46:39.930Z,100588.94
2023-01-12T23:49:07.545Z,100589.29
2023-01-12T23:51:38.398Z,100592.44
2023-01-12T23:54:14.341Z,100587.56
2023-01-12T23:56:44.600Z,100585.29
2023-01-12T23:59:13.393Z,100588.61
